Time;durP1;ratioP1;P1;durP2;ratioP2;P2;SDS_P1;SDS_P2;PMS_P1;PMS_P2;Temp;Humidity;BMP_temperature;BMP_pressure;BME280_temperature;BME280_humidity;BME280_pressure;Samples;Min_cycle;Max_cycle;Signal;HPM_P1;HPM_P2
2022/03/13 00:02:51;;;;;;;107.80;39.53;;;;;;;1.76;47.16;101862.92;4947831;58;1141009;-70
2022/03/13 00:07:57;;;;;;;91.50;35.07;;;;;;;1.67;47.40;101861.38;4947984;58;1141110;-69
2022/03/13 00:13:03;;;;;;;86.60;33.63;;;;;;;1.61;47.46;101858.87;4948215;58;1139013;-71
2022/03/13 00:18:11;;;;;;;81.43;31.87;;;;;;;1.59;47.44;101856.73;4948271;58;1139110;-70
2022/03/13 00:23:16;;;;;;;89.23;35.47;;;;;;;1.63;47.54;101843.20;4949227;58;1139170;-70
2022/03/13 00:28:22;;;;;;;96.30;37.97;;;;;;;1.66;47.59;101841.84;4949371;58;1138943;-70
2022/03/13 00:33:29;;;;;;;85.43;30.73;;;;;;;1.67;47.37;101832.69;4934799;58;1138985;-71
2022/03/13 00:38:34;;;;;;;91.20;33.43;;;;;;;1.68;47.34;101819.20;4960957;57;1138953;-70
2022/03/13 00:43:39;;;;;;;94.70;35.90;;;;;;;1.71;47.32;101821.72;4955155;57;1138857;-69
2022/03/13 00:48:46;;;;;;;121.77;40.13;;;;;;;1.70;47.29;101814.34;4949253;58;1138911;-71
2022/03/13 00:53:52;;;;;;;72.77;27.73;;;;;;;1.67;47.46;101817.04;4945731;58;1141124;-69
2022/03/13 00:58:58;;;;;;;70.07;25.80;;;;;;;1.54;47.85;101815.98;4938692;58;1138914;-71
2022/03/13 01:04:05;;;;;;;67.12;24.40;;;;;;;1.31;48.11;101815.13;4938880;58;1138980;-69
2022/03/13 01:09:11;;;;;;;76.70;28.50;;;;;;;1.14;48.69;101818.05;4938463;58;1138948;-70
2022/03/13 01:14:18;;;;;;;91.33;29.97;;;;;;;1.04;49.11;101819.11;4938392;58;1138937;-70
2022/03/13 01:19:24;;;;;;;72.60;29.57;;;;;;;0.95;49.30;101815.34;4938022;58;1139006;-68
2022/03/13 01:24:43;;;;;;;78.20;31.37;;;;;;;0.95;49.30;101815.34;4941142;58;1139414;-69
2022/03/13 01:29:49;;;;;;;90.73;30.77;;;;;;;0.95;49.72;101816.64;4944869;58;1138941;-70
2022/03/13 01:34:58;;;;;;;82.00;31.33;;;;;;;1.00;49.72;101814.38;4937805;57;1139169;-71
2022/03/13 01:40:11;;;;;;;75.78;28.38;;;;;;;1.05;49.64;101811.27;4906481;57;1138908;-70
2022/03/13 01:45:20;;;;;;;91.27;31.30;;;;;;;1.12;49.69;101802.02;4941703;58;1139073;-68
2022/03/13 01:50:25;;;;;;;85.63;29.57;;;;;;;1.03;49.56;101777.87;4947443;58;1138833;-70
2022/03/13 01:55:32;;;;;;;78.37;28.95;;;;;;;1.09;49.50;101792.95;4960657;58;1139037;-70
2022/03/13 02:00:38;;;;;;;86.50;29.24;;;;;;;1.08;49.40;101795.14;4949828;58;1138961;-70
2022/03/13 02:05:45;;;;;;;80.72;29.60;;;;;;;1.12;49.42;101799.41;4947868;58;1139100;-70
2022/03/13 02:10:51;;;;;;;91.53;30.60;;;;;;;1.13;49.35;101801.99;4947956;58;1138991;-70
2022/03/13 02:15:56;;;;;;;71.77;27.13;;;;;;;1.13;49.25;101799.39;4948250;58;1138657;-70
2022/03/13 02:21:02;;;;;;;64.50;26.17;;;;;;;1.10;49.07;101796.83;4948368;58;1138955;-69
2022/03/13 02:26:09;;;;;;;72.08;26.20;;;;;;;1.03;49.02;101791.34;4947719;58;1138915;-70
2022/03/13 02:31:19;;;;;;;89.53;29.80;;;;;;;0.94;49.06;101781.92;4938674;58;1138998;-69
2022/03/13 02:36:35;;;;;;;77.82;26.57;;;;;;;0.90;49.25;101791.14;4939627;58;1138762;-70
2022/03/13 02:41:46;;;;;;;73.75;27.95;;;;;;;0.84;49.27;101796.00;5033268;57;1138783;-68
2022/03/13 02:46:56;;;;;;;77.60;27.63;;;;;;;0.90;49.52;101797.66;4994208;57;1138982;-70
2022/03/13 02:52:06;;;;;;;78.87;30.00;;;;;;;0.87;49.51;101793.79;5033294;56;1138748;-70
2022/03/13 02:57:12;;;;;;;90.17;32.77;;;;;;;0.86;49.67;101792.93;5042688;56;1138682;-70
2022/03/13 03:02:19;;;;;;;80.90;31.67;;;;;;;0.84;49.77;101797.74;5040709;56;1138780;-69
2022/03/13 03:07:25;;;;;;;72.03;27.17;;;;;;;0.80;49.78;101794.77;5041338;56;1138828;-70
2022/03/13 03:12:34;;;;;;;71.17;27.23;;;;;;;0.75;50.00;101796.61;5040021;56;1138746;-68
2022/03/13 03:17:39;;;;;;;63.13;26.73;;;;;;;0.69;50.22;101791.05;5032468;56;1138974;-70
2022/03/13 03:22:47;;;;;;;74.40;26.87;;;;;;;0.66;50.35;101794.55;5041892;56;1138942;-68
2022/03/13 03:27:54;;;;;;;67.13;28.13;;;;;;;0.61;50.61;101786.42;5039647;57;1138939;-70
2022/03/13 03:33:05;;;;;;;79.17;31.23;;;;;;;0.59;50.86;101785.59;5042516;57;1138925;-68
2022/03/13 03:38:11;;;;;;;78.55;27.73;;;;;;;0.58;50.98;101779.96;5042828;57;1138803;-70
2022/03/13 03:43:17;;;;;;;66.90;27.33;;;;;;;0.52;50.70;101782.66;5040901;57;1138983;-70
2022/03/13 03:48:24;;;;;;;72.23;26.40;;;;;;;0.29;50.70;101789.09;5032094;57;1139066;-69
2022/03/13 03:53:31;;;;;;;68.80;25.13;;;;;;;-0.05;51.65;101791.30;4984927;57;1138982;-69
2022/03/13 03:58:37;;;;;;;71.33;26.07;;;;;;;-0.05;51.65;101791.30;5034025;57;1140860;-69
2022/03/13 04:03:43;;;;;;;67.93;25.67;;;;;;;-0.07;52.52;101788.30;5027516;57;1141034;-69
2022/03/13 04:08:49;;;;;;;67.47;25.63;;;;;;;-0.04;52.88;101787.83;5032248;57;1142554;-70
2022/03/13 04:13:55;;;;;;;70.43;27.73;;;;;;;-0.06;52.77;101795.22;5038228;57;1141069;-71
2022/03/13 04:19:00;;;;;;;59.60;25.83;;;;;;;-0.17;52.88;101800.58;5042457;56;1141224;-68
2022/03/13 04:24:07;;;;;;;75.90;28.30;;;;;;;-0.25;52.93;101806.73;5028097;56;1140912;-68
2022/03/13 04:29:14;;;;;;;74.10;27.70;;;;;;;-0.33;53.00;101809.88;5047080;56;1140963;-70
2022/03/13 04:34:20;;;;;;;67.13;27.23;;;;;;;-0.42;53.17;101814.73;5048043;56;1141190;-71
2022/03/13 04:39:25;;;;;;;71.93;26.57;;;;;;;-0.45;53.47;101816.92;5054773;55;1140896;-68
2022/03/13 04:44:32;;;;;;;69.17;27.73;;;;;;;-0.37;53.67;101813.81;5043715;56;1141050;-69
2022/03/13 04:49:38;;;;;;;89.80;32.43;;;;;;;-0.36;53.65;101805.14;5030965;57;1141166;-70
2022/03/13 04:54:44;;;;;;;92.72;31.90;;;;;;;-0.33;53.73;101804.69;5037985;57;1141161;-71
2022/03/13 04:59:50;;;;;;;83.22;31.42;;;;;;;-0.32;53.62;101808.56;5038021;57;1140977;-68
2022/03/13 05:04:55;;;;;;;88.30;30.13;;;;;;;-0.27;53.58;101813.25;5037724;57;1141103;-69
2022/03/13 05:10:01;;;;;;;92.03;32.73;;;;;;;-0.24;53.44;101819.72;5033087;56;1140982;-68
2022/03/13 05:15:08;;;;;;;84.73;29.70;;;;;;;-0.27;53.38;101822.34;5040935;57;1140979;-69
2022/03/13 05:20:16;;;;;;;79.37;30.10;;;;;;;-0.38;53.15;101823.78;5053640;56;1141192;-71
2022/03/13 05:25:23;;;;;;;77.27;29.83;;;;;;;-0.42;53.34;101830.33;5045792;56;1141112;-69
2022/03/13 05:30:30;;;;;;;72.17;27.33;;;;;;;-0.41;53.40;101832.91;5049830;56;1140940;-69
2022/03/13 05:35:37;;;;;;;84.22;30.08;;;;;;;-0.32;53.59;101837.16;5039151;56;1141012;-71
2022/03/13 05:40:43;;;;;;;81.02;29.42;;;;;;;-0.21;53.50;101834.42;4977843;57;1141122;-71
2022/03/13 05:45:48;;;;;;;81.47;28.90;;;;;;;-0.17;53.43;101832.22;5006964;57;1140892;-72
2022/03/13 05:50:54;;;;;;;76.73;27.37;;;;;;;-0.09;53.39;101834.27;5032045;57;1140977;-70
2022/03/13 05:56:00;;;;;;;75.23;30.93;;;;;;;0.06;53.51;101848.37;5012099;57;1141216;-68
2022/03/13 06:01:08;;;;;;;89.47;30.43;;;;;;;0.24;53.34;101840.32;5012399;57;1139277;-70
2022/03/13 06:06:15;;;;;;;86.97;32.70;;;;;;;0.49;53.30;101841.25;4930921;57;1139191;-69
2022/03/13 06:11:21;;;;;;;76.37;33.40;;;;;;;0.68;52.80;101845.30;4869830;58;1139063;-68
2022/03/13 06:16:27;;;;;;;76.13;29.83;;;;;;;0.89;52.67;101852.78;4879005;58;1139062;-70
2022/03/13 06:21:33;;;;;;;75.47;27.10;;;;;;;1.07;51.41;101851.59;4879622;58;1139044;-69
2022/03/13 06:26:39;;;;;;;69.47;26.13;;;;;;;1.26;51.55;101858.65;4877090;58;1138992;-71
2022/03/13 06:31:44;;;;;;;71.97;27.20;;;;;;;1.48;51.21;101853.92;4873573;58;1138982;-69
2022/03/13 06:36:50;;;;;;;72.03;27.60;;;;;;;1.73;51.08;101847.33;4987659;57;1138684;-68
2022/03/13 06:41:56;;;;;;;66.07;27.03;;;;;;;1.96;50.11;101841.22;5003398;56;1138862;-69
2022/03/13 06:47:02;;;;;;;68.62;28.07;;;;;;;2.18;49.75;101842.91;5011850;57;1138752;-68
2022/03/13 06:52:09;;;;;;;62.20;25.13;;;;;;;2.34;49.13;101840.37;5031758;57;1139039;-69
2022/03/13 06:57:15;;;;;;;59.70;24.70;;;;;;;2.53;48.38;101843.87;4977145;57;1138968;-69
2022/03/13 07:02:21;;;;;;;62.50;27.03;;;;;;;2.69;47.20;101842.61;4957227;58;1138899;-71
2022/03/13 07:07:27;;;;;;;62.10;26.33;;;;;;;2.90;47.95;101844.72;4999423;57;1138681;-69
2022/03/13 07:12:33;;;;;;;64.13;27.17;;;;;;;3.13;46.52;101846.30;5011649;58;1138725;-70
2022/03/13 07:17:40;;;;;;;70.93;26.83;;;;;;;3.30;46.02;101844.55;4979619;58;1171233;-70
2022/03/13 07:22:46;;;;;;;65.97;24.90;;;;;;;3.48;45.99;101845.38;4950489;58;1179273;-69
2022/03/13 07:27:52;;;;;;;59.73;25.72;;;;;;;3.78;45.83;101851.97;4961239;58;1140580;-69
2022/03/13 07:32:58;;;;;;;55.73;24.30;;;;;;;4.04;43.76;101849.45;4956284;57;1138702;-69
2022/03/13 07:38:04;;;;;;;65.93;27.03;;;;;;;4.28;44.80;101837.37;4926502;58;1138915;-70
2022/03/13 07:43:11;;;;;;;62.57;25.50;;;;;;;4.55;44.14;101839.16;4922661;57;1138824;-70
2022/03/13 07:48:17;;;;;;;62.77;24.97;;;;;;;4.80;43.62;101837.05;4792678;60;1138974;-69
2022/03/13 07:53:26;;;;;;;45.03;20.47;;;;;;;5.01;42.57;101838.97;4748388;60;1138728;-71
2022/03/13 07:58:33;;;;;;;54.88;24.43;;;;;;;5.16;40.24;101842.39;4782622;60;1138889;-69
2022/03/13 08:03:39;;;;;;;45.92;20.10;;;;;;;5.39;42.62;101848.14;4715116;60;1138840;-69
2022/03/13 08:08:45;;;;;;;49.93;21.70;;;;;;;5.57;40.04;101847.95;4877842;58;1138771;-70
2022/03/13 08:13:51;;;;;;;47.37;20.13;;;;;;;5.71;39.44;101840.44;4882673;57;1138886;-69
2022/03/13 08:18:57;;;;;;;48.98;19.60;;;;;;;5.85;38.74;101846.03;4902388;57;1138849;-69
2022/03/13 08:24:05;;;;;;;36.15;17.37;;;;;;;6.08;38.89;101847.00;4959439;56;1139157;-69
2022/03/13 08:29:11;;;;;;;35.37;17.17;;;;;;;6.26;36.78;101843.67;4970804;57;1138793;-70
2022/03/13 08:34:19;;;;;;;72.70;37.07;;;;;;;6.46;37.40;101845.05;4955855;57;1138824;-69
2022/03/13 08:39:25;;;;;;;31.73;15.10;;;;;;;6.76;37.13;101832.45;4963675;57;1139300;-69
2022/03/13 08:44:30;;;;;;;31.80;15.30;;;;;;;6.98;34.70;101837.69;4969111;58;1139074;-72
2022/03/13 08:49:36;;;;;;;33.87;15.93;;;;;;;7.12;34.43;101840.59;4972233;57;1139007;-70
2022/03/13 08:54:42;;;;;;;29.97;15.13;;;;;;;7.29;33.67;101835.94;5010860;57;1139209;-69
2022/03/13 08:59:49;;;;;;;31.27;14.07;;;;;;;7.45;34.14;101831.73;5010733;57;1139019;-71
2022/03/13 09:04:54;;;;;;;36.75;17.37;;;;;;;7.60;31.29;101835.46;5010832;57;1138972;-71
2022/03/13 09:10:02;;;;;;;30.13;13.47;;;;;;;7.66;31.94;101841.75;5010590;57;1139144;-72
2022/03/13 09:15:09;;;;;;;25.33;11.80;;;;;;;7.72;30.76;101833.59;5010933;57;1139008;-72
2022/03/13 09:20:14;;;;;;;28.20;11.90;;;;;;;7.89;29.80;101835.01;5010479;57;1138941;-71
2022/03/13 09:25:20;;;;;;;28.00;13.00;;;;;;;7.99;29.26;101841.55;5010730;57;1138950;-70
2022/03/13 09:30:26;;;;;;;28.03;13.27;;;;;;;8.09;30.50;101836.74;5010541;57;1139059;-70
2022/03/13 09:35:32;;;;;;;27.10;12.23;;;;;;;8.28;30.05;101836.25;5014335;57;1140152;-71
2022/03/13 09:40:38;;;;;;;28.43;14.07;;;;;;;8.45;30.24;101830.22;5023189;57;1139153;-71
2022/03/13 09:45:44;;;;;;;21.53;10.53;;;;;;;8.55;28.39;101825.38;5030247;57;1138849;-70
2022/03/13 09:50:50;;;;;;;27.10;8.70;;;;;;;8.68;27.34;101826.48;5022900;57;1139024;-71
2022/03/13 09:55:56;;;;;;;21.12;9.90;;;;;;;8.80;28.06;101825.88;5011781;57;1136915;-71
2022/03/13 10:01:02;;;;;;;29.43;12.47;;;;;;;8.91;28.29;101819.59;5024758;57;1136767;-70
2022/03/13 10:06:09;;;;;;;32.42;14.75;;;;;;;8.98;26.19;101821.47;4944209;58;1138907;-70
2022/03/13 10:11:20;;;;;;;28.70;13.53;;;;;;;9.08;27.97;101820.06;4941265;58;1139041;-71
2022/03/13 10:16:39;;;;;;;30.70;9.90;;;;;;;9.25;26.58;101814.78;4946674;58;1138933;-71
2022/03/13 10:22:07;;;;;;;32.90;11.70;;;;;;;9.32;26.38;101818.80;4960569;58;1136801;-71
2022/03/13 10:27:17;;;;;;;24.37;10.83;;;;;;;9.33;26.52;101811.73;4848159;60;1139007;-72
2022/03/13 10:32:23;;;;;;;26.37;12.13;;;;;;;9.32;25.62;101823.27;4852118;59;1138862;-72
2022/03/13 10:37:45;;;;;;;23.53;10.47;;;;;;;9.45;25.06;101825.65;4834943;59;1138779;-72
2022/03/13 10:42:53;;;;;;;20.37;10.93;;;;;;;9.48;25.10;101821.03;4849031;59;1138869;-72
2022/03/13 10:48:21;;;;;;;21.87;10.68;;;;;;;9.64;25.62;101821.08;4931038;58;1138918;-72
2022/03/13 10:53:29;;;;;;;18.30;9.13;;;;;;;9.82;25.98;101816.61;4839193;59;1141232;-72
2022/03/13 10:58:38;;;;;;;20.37;9.27;;;;;;;10.00;24.92;101812.13;4944957;58;1138680;-72
2022/03/13 11:04:02;;;;;;;19.33;9.53;;;;;;;10.07;24.25;101806.91;4960478;58;1140920;-74
2022/03/13 11:09:09;;;;;;;30.13;12.90;;;;;;;10.21;25.37;101811.84;4848328;59;1140949;-73
2022/03/13 11:14:18;;;;;;;24.47;11.70;;;;;;;10.34;25.62;101804.08;4851392;59;1142978;-73
2022/03/13 11:19:24;;;;;;;27.57;11.67;;;;;;;10.48;25.76;101802.83;4997176;57;1142996;-72
2022/03/13 11:24:30;;;;;;;22.57;11.47;;;;;;;10.53;24.42;101805.22;4956708;58;1143277;-73
2022/03/13 11:29:52;;;;;;;16.60;8.67;;;;;;;10.66;24.86;101798.28;4954530;57;1143146;-72
2022/03/13 11:35:18;;;;;;;19.73;10.20;;;;;;;10.76;26.30;101797.27;4934873;58;1141180;-72
2022/03/13 11:40:35;;;;;;;18.67;9.40;;;;;;;10.86;24.29;101794.45;4826700;59;1143331;-73
2022/03/13 11:45:50;;;;;;;24.50;12.97;;;;;;;10.99;25.20;101786.67;4854136;59;1140922;-72
2022/03/13 11:51:02;;;;;;;30.70;14.58;;;;;;;11.13;25.78;101772.14;4824697;59;1143324;-72
2022/03/13 11:56:10;;;;;;;29.40;14.40;;;;;;;11.27;25.38;101770.37;4854202;59;1143166;-72
2022/03/13 12:01:23;;;;;;;26.60;14.47;;;;;;;11.26;25.89;101772.63;4896981;57;1143174;-72
2022/03/13 12:06:50;;;;;;;28.43;14.63;;;;;;;11.37;25.48;101774.62;4957616;58;1143035;-73
2022/03/13 12:12:08;;;;;;;30.17;13.95;;;;;;;11.48;25.14;101769.98;4884060;59;1143137;-73
2022/03/13 12:17:15;;;;;;;33.50;16.33;;;;;;;11.57;24.77;101761.02;5042080;57;1142990;-72
2022/03/13 12:22:22;;;;;;;21.68;10.30;;;;;;;11.68;24.12;101761.66;4950004;57;1143361;-72
2022/03/13 12:27:28;;;;;;;24.10;11.70;;;;;;;11.74;21.93;101757.31;4791275;60;1143131;-71
2022/03/13 12:32:35;;;;;;;23.63;12.03;;;;;;;11.73;22.81;101756.08;4821682;59;1143086;-72
2022/03/13 12:37:44;;;;;;;49.33;23.80;;;;;;;11.80;22.61;101741.51;4793428;59;1143470;-72
2022/03/13 12:42:55;;;;;;;24.15;9.88;;;;;;;11.91;22.16;101734.60;4776269;59;1255522;-72
2022/03/13 12:48:05;;;;;;;18.42;8.28;;;;;;;12.07;19.80;101730.46;4943552;57;1255789;-71
2022/03/13 12:53:16;;;;;;;11.90;7.57;;;;;;;12.07;19.80;101730.46;4823783;59;1141081;-72
2022/03/13 12:58:22;;;;;;;20.82;9.13;;;;;;;12.12;19.08;101735.01;5027754;57;1140941;-72
2022/03/13 13:03:28;;;;;;;15.37;9.13;;;;;;;12.17;19.67;101730.73;4909824;57;1140747;-72
2022/03/13 13:08:39;;;;;;;20.13;7.97;;;;;;;12.23;17.71;101730.32;4845567;59;1140934;-72
2022/03/13 13:13:50;;;;;;;11.93;6.10;;;;;;;12.19;17.77;101724.86;4853726;59;1141018;-72
2022/03/13 13:18:57;;;;;;;14.68;7.62;;;;;;;12.29;18.00;101720.17;4749205;59;1141153;-72
2022/03/13 13:24:24;;;;;;;16.43;8.00;;;;;;;12.33;15.37;101726.14;4701602;61;1141084;-71
2022/03/13 13:29:35;;;;;;;15.43;8.17;;;;;;;12.31;17.56;101720.08;4872736;58;1140955;-72
2022/03/13 13:34:44;;;;;;;13.80;6.83;;;;;;;12.34;17.75;101713.25;4821144;59;1141245;-73
2022/03/13 13:39:48;;;;;;;11.60;6.53;;;;;;;12.47;18.08;101714.13;4860272;58;1141248;-72
2022/03/13 13:44:54;;;;;;;16.35;5.95;;;;;;;12.55;16.14;101717.59;4880307;57;1141082;-71
2022/03/13 13:50:07;;;;;;;13.90;7.40;;;;;;;12.54;16.62;101720.72;4912786;58;1141364;-71
2022/03/13 13:55:24;;;;;;;19.42;7.75;;;;;;;12.64;17.15;101724.95;4899996;58;1141115;-71
2022/03/13 14:00:30;;;;;;;28.40;12.47;;;;;;;12.64;18.11;101719.17;4796383;59;1141180;-71
2022/03/13 14:05:35;;;;;;;31.03;19.03;;;;;;;12.59;17.93;101712.45;4803646;57;1143191;-71
2022/03/13 14:10:42;;;;;;;25.07;10.47;;;;;;;12.63;18.91;101716.61;4789656;57;1143112;-71
2022/03/13 14:15:47;;;;;;;18.67;9.67;;;;;;;12.74;18.85;101707.92;4896676;58;1143094;-71
2022/03/13 14:20:53;;;;;;;14.78;8.18;;;;;;;12.75;18.56;101717.59;4939961;58;1141147;-71
2022/03/13 14:26:00;;;;;;;13.43;7.70;;;;;;;12.68;18.22;101711.34;4964863;58;1141038;-71
2022/03/13 14:31:06;;;;;;;15.10;8.70;;;;;;;12.67;18.12;101718.12;4926537;59;1141128;-71
2022/03/13 14:36:12;;;;;;;14.07;8.23;;;;;;;12.56;17.80;101720.14;4929175;59;1140954;-71
2022/03/13 14:41:23;;;;;;;16.33;8.27;;;;;;;12.44;17.92;101717.45;4846399;60;1141035;-71
2022/03/13 14:46:29;;;;;;;15.40;7.80;;;;;;;12.39;18.68;101713.77;4893520;58;1140900;-71
2022/03/13 14:51:36;;;;;;;15.10;7.37;;;;;;;12.38;17.97;101722.69;4868658;58;1140928;-72
2022/03/13 14:56:41;;;;;;;20.50;10.90;;;;;;;12.37;18.56;101717.03;4860406;58;1141241;-71
2022/03/13 15:01:48;;;;;;;13.70;8.50;;;;;;;12.36;19.22;101715.80;4905015;57;1143407;-71
2022/03/13 15:06:54;;;;;;;14.35;8.00;;;;;;;12.36;18.74;101723.77;5029768;57;1141029;-71
2022/03/13 15:12:00;;;;;;;11.68;8.03;;;;;;;12.28;18.95;101721.13;4963526;58;1140926;-71
2022/03/13 15:17:06;;;;;;;17.17;10.53;;;;;;;12.16;18.84;101713.12;4973575;57;1141008;-72
2022/03/13 15:22:12;;;;;;;29.83;16.93;;;;;;;12.14;20.16;101706.59;4966959;57;1143059;-71
2022/03/13 15:27:20;;;;;;;23.10;12.63;;;;;;;12.14;20.16;101706.59;5030857;57;1143207;-71
2022/03/13 15:32:27;;;;;;;15.33;7.60;;;;;;;12.19;19.42;101711.13;5015353;57;1143303;-71
2022/03/13 15:37:33;;;;;;;17.13;9.10;;;;;;;12.09;19.32;101705.17;5019708;57;1140886;-71
2022/03/13 15:42:39;;;;;;;18.80;9.60;;;;;;;12.03;19.94;101717.05;5015362;57;1141129;-72
2022/03/13 15:47:45;;;;;;;24.67;11.70;;;;;;;11.94;20.88;101713.65;4982401;57;1141030;-72
2022/03/13 15:52:50;;;;;;;38.10;9.67;;;;;;;12.02;21.35;101711.84;4936608;57;1143511;-72
2022/03/13 15:57:56;;;;;;;21.68;9.15;;;;;;;12.04;21.20;101720.08;5012654;57;1141348;-72
2022/03/13 16:03:02;;;;;;;18.75;12.55;;;;;;;12.48;21.71;101725.59;5012803;57;1142569;-71
2022/03/13 16:08:10;;;;;;;56.40;43.70;;;;;;;13.81;21.29;101719.42;4985533;57;1143256;-72
2022/03/13 16:13:17;;;;;;;42.00;24.07;;;;;;;14.93;20.53;101711.98;4983656;57;1143171;-72
2022/03/13 16:18:22;;;;;;;37.83;23.90;;;;;;;15.09;20.39;101716.02;5006302;57;1142987;-72
2022/03/13 16:23:29;;;;;;;45.63;32.83;;;;;;;14.23;20.73;101726.56;4962130;57;1143232;-71
2022/03/13 16:28:35;;;;;;;50.00;34.53;;;;;;;13.27;21.36;101735.68;4968678;57;1143183;-71
2022/03/13 16:33:41;;;;;;;30.43;17.23;;;;;;;12.57;22.49;101733.79;4968180;57;1143092;-71
2022/03/13 16:38:47;;;;;;;40.03;20.43;;;;;;;12.08;23.14;101740.59;4969250;57;1142964;-72
2022/03/13 16:43:53;;;;;;;31.20;17.48;;;;;;;11.67;23.71;101741.41;4969187;57;1142869;-72
2022/03/13 16:48:59;;;;;;;33.73;18.17;;;;;;;11.34;24.25;101736.39;4949282;57;1142875;-72
2022/03/13 16:54:05;;;;;;;34.18;16.55;;;;;;;11.06;24.88;101741.20;4865449;57;1142930;-72
2022/03/13 16:59:13;;;;;;;34.90;20.37;;;;;;;10.81;25.29;101739.17;4884876;58;1143026;-71
2022/03/13 17:04:19;;;;;;;52.90;26.70;;;;;;;10.60;25.71;101742.21;4924704;58;1142990;-71
2022/03/13 17:09:24;;;;;;;45.90;26.30;;;;;;;10.38;26.29;101742.61;4878100;58;1143179;-72
2022/03/13 17:14:30;;;;;;;39.00;20.40;;;;;;;10.19;26.65;101746.77;4884809;58;1143064;-72
2022/03/13 17:19:38;;;;;;;26.47;14.47;;;;;;;10.03;26.87;101752.50;4880247;58;1142935;-72
2022/03/13 17:24:44;;;;;;;30.80;16.00;;;;;;;9.86;27.05;101757.39;4897335;57;1142863;-71
2022/03/13 17:29:50;;;;;;;85.67;36.43;;;;;;;9.71;27.31;101760.86;4874448;57;1143791;-73
2022/03/13 17:34:56;;;;;;;157.00;65.42;;;;;;;9.54;27.61;101761.77;4902356;57;1138906;-71
2022/03/13 17:40:03;;;;;;;209.25;99.25;;;;;;;9.38;27.89;101761.73;4895880;58;1140875;-71
2022/03/13 17:45:13;;;;;;;320.70;142.27;;;;;;;9.25;28.33;101766.41;4894557;58;1140935;-72
2022/03/13 17:50:17;;;;;;;153.50;88.50;;;;;;;9.09;28.54;101761.08;4971372;57;1143066;-72
2022/03/13 17:55:24;;;;;;;66.27;43.40;;;;;;;8.97;28.93;101773.13;5078133;55;1140794;-72
2022/03/13 18:00:30;;;;;;;36.73;20.23;;;;;;;8.89;29.25;101777.06;5069118;56;1138836;-73
2022/03/13 18:05:37;;;;;;;42.50;19.30;;;;;;;8.80;29.49;101774.44;5022698;56;1138763;-72
2022/03/13 18:10:43;;;;;;;43.83;20.33;;;;;;;8.71;29.78;101776.19;5050712;57;1138976;-72
2022/03/13 18:15:50;;;;;;;37.93;19.43;;;;;;;8.63;30.04;101781.01;5073455;55;1138923;-72
2022/03/13 18:20:56;;;;;;;44.93;23.00;;;;;;;8.56;30.35;101792.77;4979769;57;1177050;-70
2022/03/13 18:26:02;;;;;;;50.70;23.27;;;;;;;8.44;30.68;101792.45;4991990;56;1138821;-72
2022/03/13 18:31:08;;;;;;;49.90;21.50;;;;;;;8.32;30.99;101791.73;5039305;56;1140710;-73
2022/03/13 18:36:14;;;;;;;78.70;35.03;;;;;;;8.25;31.52;101796.86;5051567;56;1138826;-71
2022/03/13 18:41:20;;;;;;;39.13;20.37;;;;;;;8.18;31.68;101804.67;5055784;57;1138957;-69
2022/03/13 18:46:26;;;;;;;52.27;24.80;;;;;;;8.05;32.29;101810.13;5056012;57;1138886;-70
2022/03/13 18:51:34;;;;;;;48.77;23.53;;;;;;;7.94;32.66;101801.42;5054363;56;1139086;-71
2022/03/13 18:56:40;;;;;;;54.43;25.30;;;;;;;7.87;33.19;101801.75;5054534;57;1138746;-70
2022/03/13 19:01:46;;;;;;;79.77;31.97;;;;;;;7.78;33.58;101808.77;5055551;57;1139289;-71
2022/03/13 19:06:52;;;;;;;57.77;25.53;;;;;;;7.66;34.30;101808.38;5055843;56;1139365;-70
2022/03/13 19:11:58;;;;;;;55.50;24.27;;;;;;;7.55;34.76;101808.02;5054935;57;1138974;-73
2022/03/13 19:17:09;;;;;;;55.20;25.73;;;;;;;7.48;35.24;101806.59;5055492;57;1138889;-71
2022/03/13 19:22:15;;;;;;;45.10;22.33;;;;;;;7.46;35.39;101806.26;5054947;57;1139227;-71
2022/03/13 19:27:22;;;;;;;56.27;23.57;;;;;;;7.39;35.92;101801.71;5051131;57;1139265;-69
2022/03/13 19:32:28;;;;;;;44.13;20.80;;;;;;;7.30;36.39;101812.20;5055392;56;1138970;-71
2022/03/13 19:37:34;;;;;;;59.20;24.47;;;;;;;7.23;36.63;101807.24;5042583;57;1139013;-70
2022/03/13 19:42:40;;;;;;;51.53;23.10;;;;;;;7.16;36.87;101804.50;5054724;56;1138783;-72
2022/03/13 19:47:48;;;;;;;42.13;22.17;;;;;;;7.08;37.68;101806.59;5053324;57;1139001;-70
2022/03/13 19:52:55;;;;;;;49.70;24.50;;;;;;;6.94;38.27;101808.48;5054668;57;1143318;-71
2022/03/13 19:58:01;;;;;;;44.80;24.13;;;;;;;6.82;39.11;101803.74;5054957;57;1138941;-72
2022/03/13 20:03:07;;;;;;;52.35;24.12;;;;;;;6.70;39.57;101805.11;5036141;57;1138865;-71
2022/03/13 20:08:13;;;;;;;52.33;23.60;;;;;;;6.52;41.01;101796.66;5048409;56;1138934;-70
2022/03/13 20:13:19;;;;;;;45.30;24.80;;;;;;;6.52;41.01;101796.66;5055167;57;1139018;-69
2022/03/13 20:18:26;;;;;;;60.50;27.80;;;;;;;6.45;41.22;101801.28;5055350;57;1138977;-70
2022/03/13 20:23:32;;;;;;;53.67;26.03;;;;;;;6.35;41.62;101796.87;5055132;56;1139015;-69
2022/03/13 20:28:39;;;;;;;51.43;26.57;;;;;;;6.26;42.58;101793.27;5055495;56;1138824;-70
2022/03/13 20:33:46;;;;;;;48.30;25.83;;;;;;;6.18;42.96;101804.55;5052953;57;1138884;-71
2022/03/13 20:38:53;;;;;;;54.57;26.70;;;;;;;6.11;43.09;101806.17;5042469;57;1138990;-69
2022/03/13 20:43:59;;;;;;;53.17;26.83;;;;;;;6.04;43.64;101805.55;5042723;57;1138941;-69
2022/03/13 20:49:08;;;;;;;56.98;27.70;;;;;;;5.96;44.01;101803.19;5042876;57;1138855;-69
2022/03/13 20:54:16;;;;;;;51.70;27.10;;;;;;;5.92;44.25;101805.56;5054358;56;1138787;-70
2022/03/13 20:59:23;;;;;;;61.50;27.77;;;;;;;5.89;44.46;101815.31;5044527;56;1138680;-71
2022/03/13 21:04:29;;;;;;;54.20;27.40;;;;;;;5.84;45.35;101823.31;5042466;56;1138913;-70
2022/03/13 21:09:37;;;;;;;55.77;26.17;;;;;;;5.61;45.95;101808.88;5043411;56;1138833;-70
2022/03/13 21:14:43;;;;;;;58.23;27.67;;;;;;;5.61;45.95;101808.88;5043597;56;1138983;-70
2022/03/13 21:19:49;;;;;;;65.33;30.37;;;;;;;5.58;46.01;101813.78;5043379;56;1138716;-69
2022/03/13 21:24:55;;;;;;;55.10;27.53;;;;;;;5.55;46.60;101816.97;5043402;56;1138916;-70
2022/03/13 21:30:01;;;;;;;85.27;38.63;;;;;;;5.50;46.44;101817.61;5043330;56;1138811;-70
2022/03/13 21:35:08;;;;;;;57.27;27.62;;;;;;;5.43;46.67;101820.03;5043434;56;1138720;-69
2022/03/13 21:40:14;;;;;;;58.63;29.37;;;;;;;5.33;47.77;101822.14;5043390;57;1138676;-71
2022/03/13 21:45:23;;;;;;;66.13;33.50;;;;;;;5.26;47.26;101817.55;5043509;57;1138671;-70
2022/03/13 21:50:28;;;;;;;68.43;31.43;;;;;;;5.24;47.40;101816.74;5043386;57;1138647;-71
2022/03/13 21:55:34;;;;;;;65.03;32.67;;;;;;;5.19;47.40;101822.63;5043512;57;1138890;-69
2022/03/13 22:00:40;;;;;;;60.10;30.40;;;;;;;5.17;47.46;101826.20;5051763;57;1138891;-72
2022/03/13 22:05:46;;;;;;;67.03;33.73;;;;;;;5.11;47.88;101824.62;5054356;57;1138722;-72
2022/03/13 22:10:54;;;;;;;69.80;34.23;;;;;;;5.05;47.90;101820.89;5054354;57;1138669;-71
2022/03/13 22:16:00;;;;;;;74.72;33.38;;;;;;;4.99;48.59;101822.44;5054263;57;1138669;-69
2022/03/13 22:21:07;;;;;;;69.30;31.63;;;;;;;4.93;48.80;101814.77;5054505;57;1138697;-71
2022/03/13 22:26:13;;;;;;;58.73;29.65;;;;;;;4.85;49.91;101809.79;5054441;57;1138763;-69
2022/03/13 22:31:21;;;;;;;67.83;32.83;;;;;;;4.80;49.53;101810.38;5054692;57;1138647;-72
2022/03/13 22:36:26;;;;;;;67.53;30.80;;;;;;;4.73;50.57;101810.20;5055007;57;1138738;-71
2022/03/13 22:41:33;;;;;;;71.20;33.17;;;;;;;4.69;50.24;101811.20;5055117;57;1138875;-72
2022/03/13 22:46:39;;;;;;;66.43;30.47;;;;;;;4.62;51.37;101817.98;5053239;57;1138858;-70
2022/03/13 22:51:50;;;;;;;62.77;30.17;;;;;;;4.52;51.77;101816.13;4962873;57;1138995;-73
2022/03/13 22:56:54;;;;;;;63.67;31.43;;;;;;;4.46;51.50;101815.85;4885409;58;1138815;-72